Time;durP1;ratioP1;P1;durP2;ratioP2;P2;SDS_P1;SDS_P2;PMS_P1;PMS_P2;Temp;Humidity;BMP_temperature;BMP_pressure;BME280_temperature;BME280_humidity;BME280_pressure;Samples;Min_cycle;Max_cycle;Signal;HPM_P1;HPM_P2
2023/02/02 00:01:27;;;;;;;12.23;6.13;;;0.70;99.90;;;;;;4418548;28;657928;-68
2023/02/02 00:04:15;;;;;;;9.30;4.70;;;0.70;99.90;;;;;;4439807;28;658348;-68
2023/02/02 00:07:04;;;;;;;9.30;5.53;;;0.70;99.90;;;;;;4421854;28;656588;-68
2023/02/02 00:10:00;;;;;;;7.17;4.07;;;0.60;99.90;;;;;;4421239;28;656428;-68
2023/02/02 00:12:56;;;;;;;9.97;5.33;;;0.60;99.90;;;;;;4400295;28;657042;-67
2023/02/02 00:15:49;;;;;;;8.77;4.33;;;0.60;99.90;;;;;;4403753;28;657389;-68
2023/02/02 00:18:40;;;;;;;9.30;4.90;;;0.50;99.90;;;;;;4419118;28;657226;-68
2023/02/02 00:21:36;;;;;;;8.77;4.90;;;0.50;99.90;;;;;;4393466;28;657522;-68
2023/02/02 00:24:33;;;;;;;7.07;4.30;;;0.50;99.90;;;;;;4409709;28;656966;-68
2023/02/02 00:27:22;;;;;;;6.83;4.50;;;0.50;99.90;;;;;;4391585;28;656677;-68
2023/02/02 00:30:11;;;;;;;8.83;4.20;;;0.40;99.90;;;;;;4439109;28;656351;-68
2023/02/02 00:32:58;;;;;;;7.03;4.10;;;0.40;99.90;;;;;;4422990;28;656839;-68
2023/02/02 00:35:45;;;;;;;8.97;5.00;;;0.40;99.90;;;;;;4425070;28;656429;-67
2023/02/02 00:38:33;;;;;;;10.47;5.47;;;0.40;99.90;;;;;;4450105;28;656781;-68
2023/02/02 00:41:20;;;;;;;7.38;4.88;;;0.40;99.90;;;;;;4419514;28;657689;-68
2023/02/02 00:47:15;;;;;;;10.47;5.47;;;0.40;99.90;;;;;;4423932;28;656983;-68
2023/02/02 00:50:03;;;;;;;9.23;5.27;;;0.30;99.90;;;;;;4423556;28;658200;-67
2023/02/02 00:52:50;;;;;;;7.63;4.70;;;0.30;99.90;;;;;;4431544;28;656636;-68
2023/02/02 00:55:37;;;;;;;7.70;4.10;;;0.30;99.90;;;;;;4443801;28;656950;-68
2023/02/02 00:58:25;;;;;;;8.57;4.90;;;0.30;99.90;;;;;;4435709;28;656849;-68
2023/02/02 01:01:17;;;;;;;9.70;5.27;;;0.30;99.90;;;;;;4448366;28;656924;-68
2023/02/02 01:04:04;;;;;;;9.50;4.63;;;0.30;99.90;;;;;;4416057;28;656236;-67
2023/02/02 01:06:51;;;;;;;6.33;3.83;;;0.30;99.90;;;;;;4422411;28;656731;-68
2023/02/02 01:09:39;;;;;;;7.33;3.80;;;0.40;99.90;;;;;;4433735;28;657528;-68
2023/02/02 01:12:26;;;;;;;6.07;3.67;;;0.30;99.90;;;;;;4424795;28;656417;-68
2023/02/02 01:15:13;;;;;;;11.77;4.67;;;0.30;99.90;;;;;;4440535;28;656796;-68
2023/02/02 01:18:02;;;;;;;8.37;3.97;;;0.30;99.90;;;;;;4423297;28;658221;-68
2023/02/02 01:20:57;;;;;;;10.53;4.77;;;0.30;99.90;;;;;;4442746;28;657145;-68
2023/02/02 01:23:44;;;;;;;3.97;2.43;;;0.30;99.90;;;;;;4413213;28;657550;-68
2023/02/02 01:26:31;;;;;;;9.47;4.37;;;0.30;99.90;;;;;;4424421;28;656845;-68
2023/02/02 01:29:19;;;;;;;7.80;4.10;;;0.30;99.90;;;;;;4444540;28;656605;-68
2023/02/02 01:32:07;;;;;;;7.72;4.13;;;0.40;99.90;;;;;;4419416;28;657916;-68
2023/02/02 01:34:57;;;;;;;9.93;4.87;;;0.40;99.90;;;;;;4445620;28;656696;-68
2023/02/02 01:37:44;;;;;;;9.40;4.90;;;0.50;99.90;;;;;;4313745;28;655953;-69
2023/02/02 01:40:31;;;;;;;10.60;6.00;;;0.50;99.90;;;;;;4289221;28;656569;-69
2023/02/02 01:43:23;;;;;;;7.47;3.93;;;0.50;99.90;;;;;;4372123;28;657450;-68
2023/02/02 01:46:11;;;;;;;14.33;5.87;;;0.40;99.90;;;;;;4412505;28;656640;-68
2023/02/02 01:49:02;;;;;;;13.20;5.70;;;0.40;99.90;;;;;;4446144;28;658317;-68
2023/02/02 01:51:51;;;;;;;10.30;6.17;;;0.50;99.90;;;;;;4425442;28;657966;-68
2023/02/02 01:54:40;;;;;;;14.37;5.47;;;0.50;99.90;;;;;;4416792;28;658009;-68
2023/02/02 01:57:29;;;;;;;12.90;6.17;;;0.50;99.90;;;;;;4418236;28;658001;-68
2023/02/02 02:00:17;;;;;;;9.37;4.70;;;0.50;99.90;;;;;;4418904;28;658057;-68
2023/02/02 02:03:06;;;;;;;11.80;5.83;;;0.40;99.90;;;;;;4455333;28;656718;-68
2023/02/02 02:05:55;;;;;;;11.43;5.57;;;0.40;99.90;;;;;;4415791;28;658299;-68
2023/02/02 02:08:46;;;;;;;18.30;6.77;;;0.40;99.90;;;;;;4418535;28;659406;-68
2023/02/02 02:11:34;;;;;;;15.07;7.33;;;0.50;99.90;;;;;;4421606;28;658144;-68
2023/02/02 02:17:36;;;;;;;17.37;8.10;;;0.60;99.90;;;;;;4416591;28;657662;-68
2023/02/02 02:28:04;;;;;;;17.23;7.93;;;0.60;99.90;;;;;;4358319;28;657777;-68
2023/02/02 02:31:08;;;;;;;19.33;8.07;;;0.50;99.90;;;;;;4422390;28;658404;-68
2023/02/02 02:33:58;;;;;;;19.40;8.67;;;0.50;99.90;;;;;;4403652;28;657725;-68
2023/02/02 02:36:48;;;;;;;16.08;8.15;;;0.50;99.90;;;;;;4418326;28;661114;-68
2023/02/02 02:39:38;;;;;;;21.65;7.97;;;0.50;99.90;;;;;;4424267;28;657661;-68
2023/02/02 02:42:27;;;;;;;13.37;6.13;;;0.60;99.90;;;;;;4421236;28;658277;-69
2023/02/02 02:45:14;;;;;;;20.03;8.73;;;0.50;99.90;;;;;;4440129;28;657817;-68
2023/02/02 02:48:02;;;;;;;14.53;6.67;;;0.50;99.90;;;;;;4430913;28;657839;-68
2023/02/02 02:50:51;;;;;;;19.10;7.93;;;0.50;99.90;;;;;;4444973;28;659015;-68
2023/02/02 02:53:38;;;;;;;23.70;9.10;;;0.50;99.90;;;;;;4421521;28;658185;-68
2023/02/02 02:56:27;;;;;;;20.80;6.50;;;0.50;99.90;;;;;;4420692;28;657664;-68
2023/02/02 02:59:19;;;;;;;23.77;5.93;;;0.50;99.90;;;;;;4437980;28;657916;-68
2023/02/02 03:02:15;;;;;;;18.10;8.23;;;0.60;99.90;;;;;;4425879;28;658003;-68
2023/02/02 03:05:11;;;;;;;17.13;8.20;;;0.60;99.90;;;;;;4393459;28;657901;-68
2023/02/02 03:08:04;;;;;;;26.90;10.20;;;0.60;99.90;;;;;;4414424;28;657729;-68
2023/02/02 03:10:51;;;;;;;19.27;8.50;;;0.60;99.90;;;;;;4427050;28;658953;-68
2023/02/02 03:13:39;;;;;;;22.77;9.77;;;0.60;99.90;;;;;;4437409;28;658424;-68
2023/02/02 03:16:26;;;;;;;22.63;8.85;;;0.60;99.90;;;;;;4420635;28;657384;-68
2023/02/02 03:19:13;;;;;;;21.10;10.53;;;0.60;99.90;;;;;;4444212;28;658208;-69
2023/02/02 03:22:01;;;;;;;20.67;9.20;;;0.60;99.90;;;;;;4419863;28;658633;-69
2023/02/02 03:24:49;;;;;;;25.57;9.30;;;0.60;99.90;;;;;;4444187;28;658409;-68
2023/02/02 03:27:37;;;;;;;23.03;10.30;;;0.60;99.90;;;;;;4415457;28;658436;-69
2023/02/02 03:30:24;;;;;;;19.80;9.60;;;0.60;99.90;;;;;;4429314;28;658506;-68
2023/02/02 03:33:11;;;;;;;28.88;12.27;;;0.60;99.90;;;;;;4420069;28;658306;-68
2023/02/02 03:35:59;;;;;;;31.33;14.50;;;0.60;99.90;;;;;;4441973;28;659378;-68
2023/02/02 03:38:46;;;;;;;30.90;13.40;;;0.70;99.90;;;;;;4388974;28;658598;-69
2023/02/02 03:41:34;;;;;;;21.47;11.70;;;0.60;99.90;;;;;;4302773;28;658585;-69
2023/02/02 03:44:22;;;;;;;25.47;13.30;;;0.60;99.90;;;;;;4285272;28;659390;-69
2023/02/02 03:47:09;;;;;;;27.60;11.00;;;0.60;99.90;;;;;;4384373;28;658643;-68
2023/02/02 03:49:56;;;;;;;20.87;10.53;;;0.60;99.90;;;;;;4413991;28;659145;-68
2023/02/02 03:52:44;;;;;;;24.57;12.17;;;0.60;99.90;;;;;;4433215;28;658820;-68
2023/02/02 03:55:31;;;;;;;22.70;11.67;;;0.60;99.90;;;;;;4416619;28;659009;-68
2023/02/02 03:58:21;;;;;;;26.40;10.47;;;0.60;99.90;;;;;;4437042;28;658831;-68
2023/02/02 04:01:10;;;;;;;22.27;10.57;;;0.60;99.90;;;;;;4410144;28;659897;-68
2023/02/02 04:03:57;;;;;;;31.97;11.13;;;0.60;99.90;;;;;;4421331;28;658753;-68
2023/02/02 04:06:44;;;;;;;27.37;10.83;;;0.60;99.90;;;;;;4432868;28;658743;-68
2023/02/02 04:09:32;;;;;;;26.83;11.27;;;0.60;99.90;;;;;;4418588;28;659048;-68
2023/02/02 04:12:19;;;;;;;24.03;10.57;;;0.60;99.90;;;;;;4437180;28;658667;-68
2023/02/02 04:15:08;;;;;;;24.30;11.23;;;0.60;99.90;;;;;;4418758;28;659118;-68
2023/02/02 04:17:56;;;;;;;20.87;10.37;;;0.60;99.90;;;;;;4413548;28;660022;-68
2023/02/02 04:20:43;;;;;;;17.87;8.60;;;0.70;99.90;;;;;;4439075;28;659756;-68
2023/02/02 04:23:30;;;;;;;22.07;9.03;;;0.70;99.90;;;;;;4416963;28;657623;-68
2023/02/02 04:26:18;;;;;;;18.33;9.07;;;0.70;99.90;;;;;;4440737;28;657925;-68
2023/02/02 04:29:05;;;;;;;15.27;5.70;;;0.70;99.90;;;;;;4430664;28;658808;-69
2023/02/02 04:31:54;;;;;;;20.10;8.23;;;0.70;99.90;;;;;;4446522;28;657881;-68
2023/02/02 04:34:41;;;;;;;26.07;9.20;;;0.70;99.90;;;;;;4422397;28;658025;-68
2023/02/02 04:37:30;;;;;;;20.73;7.22;;;0.70;99.90;;;;;;4440933;28;657741;-68
2023/02/02 04:40:18;;;;;;;15.53;7.03;;;0.70;99.90;;;;;;4418864;28;658572;-68
2023/02/02 04:43:05;;;;;;;12.00;5.38;;;0.70;99.90;;;;;;4431326;28;658961;-69
2023/02/02 04:45:56;;;;;;;19.90;7.93;;;0.70;99.90;;;;;;4443172;28;658077;-68
2023/02/02 04:48:44;;;;;;;20.77;8.00;;;0.70;99.90;;;;;;4417970;28;660807;-68
2023/02/02 04:51:31;;;;;;;16.93;5.63;;;0.70;99.90;;;;;;4416829;28;657871;-69
2023/02/02 04:54:19;;;;;;;21.33;6.97;;;0.70;99.90;;;;;;4444359;28;657672;-68
2023/02/02 04:57:06;;;;;;;19.50;7.77;;;0.70;99.90;;;;;;4430703;28;657203;-68
2023/02/02 04:59:53;;;;;;;15.30;5.80;;;0.70;99.90;;;;;;4450438;28;658788;-68
2023/02/02 05:02:41;;;;;;;17.37;5.87;;;0.70;99.90;;;;;;4428253;28;657891;-68
2023/02/02 05:05:29;;;;;;;22.23;7.57;;;0.70;99.90;;;;;;4441544;28;658210;-68
2023/02/02 05:08:17;;;;;;;25.87;8.13;;;0.70;99.90;;;;;;4426324;28;657977;-68
2023/02/02 05:11:07;;;;;;;17.60;6.77;;;0.70;99.90;;;;;;4444603;28;657203;-68
2023/02/02 05:13:55;;;;;;;21.77;6.80;;;0.70;99.90;;;;;;4418798;28;658552;-68
2023/02/02 05:16:42;;;;;;;22.90;6.80;;;0.70;99.90;;;;;;4444090;28;659243;-68
2023/02/02 05:19:30;;;;;;;29.33;7.03;;;0.70;99.90;;;;;;4440268;28;658334;-69
2023/02/02 05:22:19;;;;;;;18.10;5.57;;;0.70;99.90;;;;;;4454279;28;657907;-68
2023/02/02 05:25:07;;;;;;;25.93;5.70;;;0.70;99.90;;;;;;4426747;28;657530;-68
2023/02/02 05:27:54;;;;;;;12.33;5.20;;;0.70;99.90;;;;;;4447520;28;657100;-69
2023/02/02 05:30:41;;;;;;;12.33;5.13;;;0.80;99.90;;;;;;4424163;28;657832;-68
2023/02/02 05:33:28;;;;;;;14.80;4.30;;;0.80;99.90;;;;;;4443670;28;658023;-68
2023/02/02 05:36:15;;;;;;;15.50;4.57;;;0.80;99.90;;;;;;4419851;28;657495;-69
2023/02/02 05:39:04;;;;;;;18.00;4.20;;;0.80;99.90;;;;;;4447454;28;658665;-68
2023/02/02 05:41:52;;;;;;;15.70;4.20;;;0.90;99.90;;;;;;4424393;28;658531;-69
2023/02/02 05:44:39;;;;;;;16.03;3.60;;;0.80;99.90;;;;;;4443996;28;657830;-69
2023/02/02 05:47:26;;;;;;;16.13;4.50;;;0.80;99.90;;;;;;4422893;28;657179;-69
2023/02/02 05:50:13;;;;;;;15.43;5.50;;;0.80;99.90;;;;;;4440755;28;658500;-69
2023/02/02 05:53:00;;;;;;;13.87;5.33;;;0.90;99.90;;;;;;4422572;28;657861;-69
2023/02/02 05:55:49;;;;;;;20.40;6.60;;;0.90;99.90;;;;;;4441544;28;657634;-69
2023/02/02 05:58:36;;;;;;;23.47;6.43;;;0.90;99.90;;;;;;4418724;28;657892;-69
2023/02/02 06:01:24;;;;;;;19.23;7.20;;;0.90;99.90;;;;;;4441783;28;658455;-68
2023/02/02 06:04:11;;;;;;;20.83;6.80;;;0.90;99.90;;;;;;4426294;28;658371;-69
2023/02/02 06:06:58;;;;;;;17.47;6.80;;;0.90;99.90;;;;;;4445214;28;658545;-69
2023/02/02 06:09:45;;;;;;;20.40;8.52;;;0.90;99.90;;;;;;4418861;28;657561;-69
2023/02/02 06:12:34;;;;;;;13.57;5.43;;;0.90;99.90;;;;;;4443463;28;659189;-68
2023/02/02 06:15:21;;;;;;;25.10;8.17;;;0.80;99.90;;;;;;4426801;28;657496;-69
2023/02/02 06:18:09;;;;;;;25.73;7.97;;;0.80;99.90;;;;;;4453359;28;658610;-69
2023/02/02 06:20:57;;;;;;;18.13;6.83;;;0.80;99.90;;;;;;4419372;28;658539;-69
2023/02/02 06:23:45;;;;;;;12.53;6.63;;;0.80;99.90;;;;;;4441559;28;658002;-68
2023/02/02 06:26:32;;;;;;;19.63;7.63;;;0.90;99.90;;;;;;4428020;28;657815;-68
2023/02/02 06:29:21;;;;;;;17.60;7.53;;;0.90;99.90;;;;;;4440205;28;657831;-68
2023/02/02 06:32:08;;;;;;;16.03;7.00;;;0.90;99.90;;;;;;4418211;28;657778;-68
2023/02/02 06:34:55;;;;;;;18.00;6.63;;;0.90;99.90;;;;;;4419516;28;658738;-69
2023/02/02 06:37:42;;;;;;;20.50;7.80;;;0.90;99.90;;;;;;4445228;28;658025;-68
2023/02/02 06:40:30;;;;;;;22.53;8.70;;;0.90;99.90;;;;;;4437172;28;658173;-68
2023/02/02 06:43:18;;;;;;;16.97;8.23;;;0.90;99.90;;;;;;4439977;28;658245;-79
2023/02/02 06:46:07;;;;;;;16.53;7.40;;;0.90;99.90;;;;;;4386405;28;657481;-77
2023/02/02 06:49:01;;;;;;;15.70;7.10;;;0.90;99.90;;;;;;4426155;28;657219;-81
2023/02/02 06:51:49;;;;;;;21.13;8.10;;;1.00;99.90;;;;;;4421845;28;658186;-79
2023/02/02 06:54:36;;;;;;;16.83;7.00;;;1.00;99.90;;;;;;4421661;28;657743;-78
2023/02/02 07:00:26;;;;;;;15.40;6.60;;;1.00;99.90;;;;;;4406171;28;657474;-81
2023/02/02 07:03:15;;;;;;;18.00;6.22;;;1.00;99.90;;;;;;4412813;28;658592;-80
2023/02/02 07:06:13;;;;;;;16.23;5.77;;;1.00;99.90;;;;;;4394582;28;658537;-80
2023/02/02 07:09:01;;;;;;;18.20;6.53;;;1.00;99.90;;;;;;4364941;28;657645;-78
2023/02/02 07:11:48;;;;;;;19.07;7.37;;;0.90;99.90;;;;;;4414904;28;658322;-80
2023/02/02 07:14:36;;;;;;;22.00;8.10;;;0.90;99.90;;;;;;4369847;28;657918;-79
2023/02/02 07:17:24;;;;;;;14.90;5.50;;;0.90;99.90;;;;;;4437698;28;657335;-79
2023/02/02 07:20:12;;;;;;;17.67;7.13;;;0.90;99.90;;;;;;4403413;28;657604;-78
2023/02/02 07:23:01;;;;;;;22.13;7.60;;;0.90;99.90;;;;;;4425291;28;657863;-77
2023/02/02 07:25:48;;;;;;;10.70;4.67;;;0.90;99.90;;;;;;4438531;28;658404;-77
2023/02/02 07:28:35;;;;;;;15.73;5.80;;;0.90;99.90;;;;;;4397684;28;657329;-77
2023/02/02 07:31:24;;;;;;;14.53;6.00;;;0.90;99.90;;;;;;4445473;28;657610;-75
2023/02/02 07:34:11;;;;;;;16.93;6.93;;;0.90;99.90;;;;;;4414026;28;657520;-77
2023/02/02 07:37:00;;;;;;;18.90;7.10;;;0.90;99.90;;;;;;4438491;28;657955;-78
2023/02/02 07:39:47;;;;;;;14.50;4.87;;;0.90;99.90;;;;;;4410875;28;657933;-79
2023/02/02 07:42:34;;;;;;;14.30;4.63;;;0.90;99.90;;;;;;4442683;28;657739;-77
2023/02/02 07:45:22;;;;;;;20.60;7.13;;;0.90;99.90;;;;;;4415907;28;657984;-81
2023/02/02 07:48:09;;;;;;;17.10;7.20;;;0.80;99.90;;;;;;4344654;28;657897;-76
2023/02/02 07:51:00;;;;;;;15.17;7.07;;;0.90;99.90;;;;;;4270812;28;657783;-76
2023/02/02 07:53:49;;;;;;;17.20;7.00;;;0.80;99.90;;;;;;4293144;28;658692;-77
2023/02/02 07:56:37;;;;;;;16.53;7.67;;;0.80;99.90;;;;;;4391395;28;657632;-77
2023/02/02 07:59:24;;;;;;;16.10;7.43;;;0.80;99.90;;;;;;4397058;28;658368;-79
2023/02/02 08:02:12;;;;;;;17.17;7.33;;;0.70;99.90;;;;;;4404525;28;657411;-79
2023/02/02 08:04:59;;;;;;;24.37;9.00;;;0.80;99.90;;;;;;4421534;28;657458;-78
2023/02/02 08:07:47;;;;;;;29.70;9.90;;;0.70;99.90;;;;;;4405463;28;657587;-79
2023/02/02 08:10:37;;;;;;;19.00;8.17;;;0.70;99.90;;;;;;4424859;28;657224;-81
2023/02/02 08:13:27;;;;;;;28.90;8.17;;;0.80;99.90;;;;;;4293861;28;657917;-78
2023/02/02 08:16:15;;;;;;;25.50;8.50;;;0.70;99.90;;;;;;4410851;28;657572;-80
2023/02/02 08:19:02;;;;;;;17.57;5.57;;;0.80;99.90;;;;;;4350673;28;658101;-78
2023/02/02 08:21:50;;;;;;;28.00;9.20;;;0.80;99.90;;;;;;4384774;28;658946;-80
2023/02/02 08:24:39;;;;;;;19.17;9.07;;;0.70;99.90;;;;;;4364329;28;657934;-82
2023/02/02 08:27:28;;;;;;;19.27;7.57;;;0.70;99.90;;;;;;4361966;28;657984;-80
2023/02/02 08:30:15;;;;;;;17.27;8.97;;;0.70;99.90;;;;;;4391796;28;657710;-76
2023/02/02 08:33:03;;;;;;;22.23;8.07;;;0.70;99.90;;;;;;4426997;28;658665;-78
2023/02/02 08:35:50;;;;;;;14.07;6.67;;;0.70;99.90;;;;;;4432002;28;657605;-76
2023/02/02 08:38:37;;;;;;;16.20;7.37;;;0.70;99.90;;;;;;4442926;28;658494;-77
2023/02/02 08:41:25;;;;;;;16.10;5.33;;;0.70;99.90;;;;;;4450848;28;657152;-78
2023/02/02 08:44:14;;;;;;;21.17;8.07;;;0.60;99.90;;;;;;4421868;28;658344;-77
2023/02/02 08:47:02;;;;;;;16.97;7.33;;;0.70;99.90;;;;;;4422523;28;658110;-79
2023/02/02 08:49:49;;;;;;;11.43;4.37;;;0.70;99.90;;;;;;4445870;28;657300;-79
2023/02/02 08:52:36;;;;;;;17.03;6.90;;;0.60;99.90;;;;;;4418171;28;657646;-78
2023/02/02 08:55:23;;;;;;;17.27;7.30;;;0.70;99.90;;;;;;4439060;28;658447;-80
2023/02/02 08:58:10;;;;;;;14.17;4.67;;;0.80;99.90;;;;;;4418520;28;657498;-80
2023/02/02 09:01:05;;;;;;;17.97;6.93;;;0.70;99.90;;;;;;4435803;28;657617;-78
2023/02/02 09:03:53;;;;;;;11.23;5.30;;;0.80;99.90;;;;;;4421298;28;658078;-81
2023/02/02 09:06:41;;;;;;;22.60;8.40;;;0.70;99.90;;;;;;4419670;28;657540;-82
2023/02/02 09:09:29;;;;;;;11.27;5.53;;;0.70;99.90;;;;;;4437472;28;658636;-76
2023/02/02 09:12:16;;;;;;;19.03;7.13;;;0.70;99.90;;;;;;4419499;28;657379;-80
2023/02/02 09:15:03;;;;;;;9.30;5.10;;;0.70;99.90;;;;;;4443840;28;658798;-83
2023/02/02 09:17:52;;;;;;;16.50;8.03;;;0.80;99.90;;;;;;4419496;28;657179;-79
2023/02/02 09:20:40;;;;;;;16.53;7.47;;;0.80;99.90;;;;;;4428169;28;657605;-82
2023/02/02 09:23:29;;;;;;;15.60;7.20;;;0.90;99.90;;;;;;4422485;28;657670;-80
2023/02/02 09:26:17;;;;;;;11.60;5.37;;;0.90;99.90;;;;;;4416136;28;657545;-81
2023/02/02 09:29:05;;;;;;;17.67;7.57;;;0.80;99.90;;;;;;4437743;28;657565;-83
2023/02/02 09:31:52;;;;;;;11.30;4.95;;;0.80;99.90;;;;;;4418770;28;659037;-81
2023/02/02 09:34:41;;;;;;;14.93;6.93;;;0.80;99.90;;;;;;4443544;28;657244;-80
2023/02/02 09:37:28;;;;;;;17.23;4.93;;;0.70;99.90;;;;;;4412943;28;658716;-78
2023/02/02 09:40:17;;;;;;;17.53;7.27;;;0.70;99.90;;;;;;4416210;28;658060;-78
2023/02/02 09:43:08;;;;;;;19.50;8.07;;;0.80;99.90;;;;;;4437964;28;657298;-80
2023/02/02 09:45:58;;;;;;;19.37;8.97;;;0.80;99.90;;;;;;4395484;28;657965;-76
2023/02/02 09:48:48;;;;;;;14.10;6.73;;;0.70;99.90;;;;;;4415107;28;657673;-77
2023/02/02 09:51:39;;;;;;;16.37;7.20;;;0.70;99.90;;;;;;4419997;28;658056;-76
2023/02/02 09:54:28;;;;;;;13.67;5.87;;;0.60;99.90;;;;;;4412106;28;658455;-77
2023/02/02 09:57:18;;;;;;;12.03;6.20;;;0.60;99.90;;;;;;4411809;28;657546;-75
2023/02/02 10:00:07;;;;;;;14.00;6.53;;;0.60;99.90;;;;;;4427909;28;657797;-75
2023/02/02 10:02:57;;;;;;;11.93;5.27;;;0.70;99.90;;;;;;4435529;28;657843;-79
2023/02/02 10:05:49;;;;;;;18.20;8.47;;;0.70;99.90;;;;;;4414050;28;657022;-77
2023/02/02 10:08:41;;;;;;;17.93;8.27;;;0.80;99.90;;;;;;4420470;28;658349;-77
2023/02/02 10:11:32;;;;;;;15.40;7.50;;;0.70;99.90;;;;;;4411293;28;657822;-77
2023/02/02 10:14:22;;;;;;;11.23;5.43;;;0.80;99.90;;;;;;4412555;28;657559;-75
2023/02/02 10:17:36;;;;;;;10.73;5.37;;;0.80;99.90;;;;;;4422288;28;658095;-80
2023/02/02 10:20:31;;;;;;;18.00;7.67;;;0.80;99.90;;;;;;4379820;28;657795;-77
2023/02/02 10:23:23;;;;;;;18.40;7.77;;;0.80;99.90;;;;;;4423873;28;657593;-79
2023/02/02 10:26:15;;;;;;;20.83;9.43;;;0.80;99.90;;;;;;4395215;28;657665;-73
2023/02/02 10:29:07;;;;;;;14.93;7.23;;;0.90;99.90;;;;;;4412831;28;658423;-72
2023/02/02 10:31:59;;;;;;;18.07;8.53;;;0.90;99.90;;;;;;4439387;28;657392;-72
2023/02/02 10:35:01;;;;;;;17.93;8.93;;;0.90;99.90;;;;;;4416982;28;658140;-73
2023/02/02 10:37:52;;;;;;;20.30;8.53;;;1.00;99.90;;;;;;4416109;28;658767;-72
2023/02/02 10:40:45;;;;;;;19.07;8.27;;;1.10;99.90;;;;;;4430614;28;657509;-72
2023/02/02 10:44:01;;;;;;;16.43;7.80;;;1.10;99.90;;;;;;4419856;28;657617;-72
2023/02/02 10:46:49;;;;;;;16.70;7.07;;;1.00;99.90;;;;;;4409850;28;657885;-72
2023/02/02 10:49:37;;;;;;;19.13;8.60;;;1.00;99.90;;;;;;4413862;28;657848;-72
2023/02/02 10:52:28;;;;;;;19.80;7.97;;;1.10;99.90;;;;;;4439028;28;657957;-73
2023/02/02 10:55:21;;;;;;;12.97;6.10;;;1.10;99.90;;;;;;4395754;28;657925;-72
2023/02/02 10:58:14;;;;;;;13.93;7.63;;;1.10;99.90;;;;;;4411465;28;658488;-72
2023/02/02 11:01:06;;;;;;;11.95;5.68;;;1.20;99.90;;;;;;4415960;28;657299;-72
2023/02/02 11:06:54;;;;;;;14.43;6.40;;;1.20;99.90;;;;;;4409435;28;657351;-73
2023/02/02 11:09:42;;;;;;;14.83;6.57;;;1.30;99.90;;;;;;4417433;28;657744;-73
2023/02/02 11:12:31;;;;;;;7.93;4.37;;;1.40;99.90;;;;;;4435114;28;657719;-72
2023/02/02 11:15:26;;;;;;;11.63;5.47;;;1.40;99.90;;;;;;4416300;28;657411;-73
2023/02/02 11:18:26;;;;;;;12.40;6.25;;;1.60;99.90;;;;;;4412053;28;657524;-73
2023/02/02 11:21:18;;;;;;;12.83;5.77;;;1.70;99.90;;;;;;4410229;28;658049;-74
2023/02/02 11:24:06;;;;;;;13.93;6.13;;;1.70;99.90;;;;;;4406428;28;658110;-74
2023/02/02 11:26:55;;;;;;;17.00;6.90;;;1.80;99.90;;;;;;4442162;28;657872;-73
2023/02/02 11:29:45;;;;;;;11.80;5.60;;;1.80;99.90;;;;;;4413205;28;658139;-73
2023/02/02 11:32:32;;;;;;;11.70;4.60;;;2.00;99.90;;;;;;4415178;28;658856;-73
2023/02/02 11:35:22;;;;;;;14.67;5.00;;;2.00;99.90;;;;;;4438318;28;657696;-73
2023/02/02 11:38:10;;;;;;;9.07;3.72;;;2.00;99.90;;;;;;4410894;28;657821;-74
2023/02/02 11:41:01;;;;;;;7.63;2.63;;;2.10;99.90;;;;;;4426509;28;656891;-74
2023/02/02 11:43:49;;;;;;;7.57;3.13;;;2.10;99.90;;;;;;4410400;28;657804;-73
2023/02/02 11:46:37;;;;;;;11.00;3.87;;;2.00;99.90;;;;;;4425195;28;656535;-74
2023/02/02 11:49:25;;;;;;;10.57;3.83;;;1.90;99.90;;;;;;4443812;28;657988;-74
2023/02/02 11:52:17;;;;;;;9.23;4.33;;;2.00;99.90;;;;;;4412247;28;658569;-74
2023/02/02 11:55:15;;;;;;;12.33;4.40;;;2.00;99.90;;;;;;4425902;28;656743;-74
2023/02/02 11:58:23;;;;;;;6.60;3.67;;;2.20;99.90;;;;;;4420678;28;659048;-73
2023/02/02 12:01:22;;;;;;;205.33;9.43;;;2.10;99.90;;;;;;4391934;28;656737;-75
2023/02/02 12:04:23;;;;;;;13.30;3.67;;;2.00;99.90;;;;;;4413581;28;658989;-75
2023/02/02 12:07:24;;;;;;;15.30;3.80;;;2.10;99.90;;;;;;4388094;28;658028;-75
2023/02/02 12:10:16;;;;;;;7.40;3.33;;;2.00;99.90;;;;;;4389205;28;658437;-75
2023/02/02 12:13:07;;;;;;;8.45;3.55;;;2.00;99.90;;;;;;4414650;28;657845;-76
2023/02/02 12:15:59;;;;;;;13.43;4.27;;;1.90;99.90;;;;;;4413300;28;656924;-75
2023/02/02 12:18:57;;;;;;;8.53;3.63;;;2.00;99.90;;;;;;4420367;28;658255;-75
2023/02/02 12:21:49;;;;;;;11.07;3.57;;;2.00;99.90;;;;;;4417172;28;657108;-75
2023/02/02 12:24:39;;;;;;;9.33;4.07;;;2.00;99.90;;;;;;4420167;28;657707;-75
2023/02/02 12:27:32;;;;;;;7.75;3.80;;;2.10;99.90;;;;;;4414398;28;656425;-75
2023/02/02 12:30:26;;;;;;;10.97;4.20;;;2.00;99.90;;;;;;4432093;28;656727;-75
2023/02/02 12:33:21;;;;;;;12.83;4.83;;;2.00;99.90;;;;;;4416396;28;657849;-75
2023/02/02 12:36:27;;;;;;;10.20;4.17;;;2.00;99.90;;;;;;4410891;28;658331;-74
2023/02/02 12:39:23;;;;;;;9.67;3.97;;;2.00;99.90;;;;;;4409843;28;658433;-75
2023/02/02 12:42:35;;;;;;;7.53;3.53;;;2.00;99.90;;;;;;4411740;28;656865;-75
2023/02/02 12:45:42;;;;;;;7.43;2.97;;;2.00;99.90;;;;;;4389976;28;657056;-75
2023/02/02 12:48:39;;;;;;;6.00;2.93;;;1.90;99.90;;;;;;4433376;28;656795;-75
2023/02/02 12:51:35;;;;;;;11.47;4.20;;;1.90;99.90;;;;;;4415460;28;656495;-76
2023/02/02 12:54:30;;;;;;;8.97;3.37;;;2.00;99.90;;;;;;4398279;28;658163;-75
2023/02/02 12:57:20;;;;;;;7.87;2.70;;;1.90;99.90;;;;;;4395005;28;656763;-75
2023/02/02 13:00:45;;;;;;;6.43;2.93;;;2.00;99.90;;;;;;4421055;28;657765;-74
2023/02/02 13:03:56;;;;;;;9.93;2.97;;;2.00;99.90;;;;;;4414983;28;656346;-74
2023/02/02 13:07:16;;;;;;;5.53;2.40;;;2.10;99.90;;;;;;4411496;28;657110;-73
2023/02/02 13:10:08;;;;;;;10.63;3.00;;;2.20;99.90;;;;;;4419525;28;657042;-73
2023/02/02 13:12:59;;;;;;;10.82;3.05;;;2.20;99.90;;;;;;4392103;28;657953;-73
2023/02/02 13:15:49;;;;;;;5.90;2.00;;;2.30;99.90;;;;;;4421741;28;658433;-72
2023/02/02 13:18:38;;;;;;;6.37;2.50;;;2.20;99.90;;;;;;4419884;28;656674;-74
2023/02/02 13:21:27;;;;;;;3.73;1.90;;;2.20;99.90;;;;;;4423666;28;656562;-73
2023/02/02 13:24:15;;;;;;;5.50;1.67;;;2.20;99.90;;;;;;4437652;28;657013;-72
2023/02/02 13:27:04;;;;;;;5.07;1.93;;;2.20;99.90;;;;;;4427598;28;657140;-72
2023/02/02 13:29:52;;;;;;;6.67;2.50;;;2.20;99.90;;;;;;4425851;28;656832;-73
2023/02/02 13:32:42;;;;;;;5.07;2.23;;;2.10;99.90;;;;;;4441661;28;657031;-73
2023/02/02 13:35:33;;;;;;;8.77;2.53;;;2.10;99.90;;;;;;4427064;28;656255;-73
2023/02/02 13:38:22;;;;;;;9.87;2.83;;;2.20;99.90;;;;;;4410429;28;656355;-74
2023/02/02 13:41:11;;;;;;;8.03;2.40;;;2.20;99.90;;;;;;4442396;28;656478;-72
2023/02/02 13:44:00;;;;;;;9.60;2.57;;;2.30;99.90;;;;;;4421091;28;657708;-72
2023/02/02 13:46:49;;;;;;;6.53;2.73;;;2.30;99.90;;;;;;4415775;28;657168;-74
2023/02/02 13:49:41;;;;;;;11.60;3.20;;;2.30;99.90;;;;;;4303249;28;656307;-74
2023/02/02 13:52:41;;;;;;;7.87;2.77;;;2.30;99.90;;;;;;4301558;28;658332;-73
2023/02/02 13:55:40;;;;;;;7.78;2.30;;;2.30;99.90;;;;;;4351909;28;656808;-73
2023/02/02 13:58:49;;;;;;;12.77;3.97;;;2.30;99.90;;;;;;4404967;28;656695;-73
2023/02/02 14:01:37;;;;;;;11.17;3.70;;;2.30;99.90;;;;;;4417141;28;658073;-72
2023/02/02 14:04:26;;;;;;;7.55;2.85;;;2.30;99.90;;;;;;4431252;28;657152;-72
2023/02/02 14:07:15;;;;;;;14.63;3.53;;;2.30;99.90;;;;;;4421129;28;656965;-72
2023/02/02 14:10:03;;;;;;;12.03;3.90;;;2.40;99.90;;;;;;4416865;28;658514;-72
2023/02/02 14:12:50;;;;;;;8.60;2.92;;;2.40;99.90;;;;;;4429622;28;658896;-73
2023/02/02 14:15:38;;;;;;;10.70;3.40;;;2.40;99.90;;;;;;4438643;28;657578;-73
2023/02/02 14:18:57;;;;;;;11.23;3.30;;;2.40;99.90;;;;;;4419828;28;657634;-71
2023/02/02 14:22:01;;;;;;;9.07;2.87;;;2.40;99.90;;;;;;4421748;28;657657;-73
2023/02/02 14:24:52;;;;;;;6.00;2.07;;;2.40;99.90;;;;;;4422506;28;657228;-73
2023/02/02 14:27:58;;;;;;;6.00;2.13;;;2.40;99.90;;;;;;4422208;28;656930;-73
2023/02/02 14:30:45;;;;;;;11.10;3.63;;;2.40;99.90;;;;;;4424295;28;656940;-73
2023/02/02 14:33:46;;;;;;;7.30;2.70;;;2.50;99.90;;;;;;4440825;28;657998;-73
2023/02/02 14:36:33;;;;;;;8.77;3.20;;;2.50;99.90;;;;;;4419671;28;657051;-73
2023/02/02 14:39:22;;;;;;;5.53;2.47;;;2.40;99.90;;;;;;4429149;28;656723;-72
2023/02/02 14:45:29;;;;;;;6.50;2.40;;;2.40;99.90;;;;;;4423338;28;656874;-73
2023/02/02 14:48:16;;;;;;;7.00;3.10;;;2.40;99.90;;;;;;4424388;28;656566;-72
2023/02/02 14:51:04;;;;;;;4.80;1.67;;;2.30;99.90;;;;;;4443436;28;656279;-72
2023/02/02 14:53:52;;;;;;;9.37;2.73;;;2.30;99.90;;;;;;4427355;28;657324;-73
2023/02/02 14:56:41;;;;;;;6.57;2.30;;;2.30;99.90;;;;;;4444450;28;656426;-72
2023/02/02 14:59:32;;;;;;;11.07;2.80;;;2.30;99.90;;;;;;4417149;28;657263;-73